createdAt,value
2023-04-19T00:00:19.114Z,9.84
2023-04-19T00:02:49.607Z,9.85
2023-04-19T00:05:18.864Z,9.80
2023-04-19T00:07:47.280Z,9.91
2023-04-19T00:10:15.659Z,9.86
2023-04-19T00:12:45.283Z,9.79
2023-04-19T00:15:13.508Z,9.79
2023-04-19T00:17:41.954Z,9.90
2023-04-19T00:20:12.130Z,9.77
2023-04-19T00:22:40.596Z,9.77
2023-04-19T00:25:09.286Z,9.81
2023-04-19T00:27:37.706Z,9.79
2023-04-19T00:30:20.392Z,9.77
2023-04-19T00:32:48.688Z,9.88
2023-04-19T00:35:36.946Z,9.84
2023-04-19T00:38:05.417Z,9.81
2023-04-19T00:40:33.783Z,9.84
2023-04-19T00:43:01.960Z,9.87
2023-04-19T00:45:33.510Z,9.79
2023-04-19T00:48:02.204Z,9.75
2023-04-19T00:50:30.904Z,9.78
2023-04-19T00:52:59.248Z,9.83
2023-04-19T00:55:27.566Z,9.83
2023-04-19T00:57:55.965Z,9.79
2023-04-19T01:00:24.314Z,9.78
2023-04-19T01:02:55.567Z,9.83
2023-04-19T01:05:24.024Z,9.83
2023-04-19T01:07:52.325Z,9.82
2023-04-19T01:10:20.633Z,9.86
2023-04-19T01:12:48.846Z,9.89
2023-04-19T01:15:17.094Z,9.96
2023-04-19T01:18:11.628Z,10.01
2023-04-19T01:20:40.130Z,9.97
2023-04-19T01:23:11.455Z,9.86
2023-04-19T01:25:40.007Z,9.78
2023-04-19T01:28:08.235Z,9.77
2023-04-19T01:30:37.370Z,9.75
2023-04-19T01:33:05.661Z,9.76
2023-04-19T01:35:34.016Z,9.84
2023-04-19T01:38:02.539Z,9.77
2023-04-19T01:40:32.074Z,9.78
2023-04-19T01:43:00.282Z,9.80
2023-04-19T01:45:28.715Z,9.76
2023-04-19T01:47:58.992Z,9.74
2023-04-19T01:50:27.378Z,9.78
2023-04-19T01:52:55.629Z,9.79
2023-04-19T01:55:23.840Z,9.74
2023-04-19T01:57:54.821Z,9.75
2023-04-19T02:00:23.569Z,9.71
2023-04-19T02:02:51.932Z,9.69
2023-04-19T02:05:20.273Z,9.78
2023-04-19T02:07:48.701Z,9.82
2023-04-19T02:10:16.899Z,9.73
2023-04-19T02:12:45.206Z,9.97
2023-04-19T02:15:14.841Z,9.91
2023-04-19T02:17:43.314Z,9.87
2023-04-19T02:20:11.707Z,9.78
2023-04-19T02:22:39.980Z,9.66
2023-04-19T02:25:08.909Z,9.69
2023-04-19T02:27:51.475Z,9.61
2023-04-19T02:30:21.568Z,9.57
2023-04-19T02:32:49.872Z,9.60
2023-04-19T02:35:18.260Z,9.62
2023-04-19T02:37:46.434Z,9.67
2023-04-19T02:40:14.693Z,9.66
2023-04-19T02:42:43.025Z,9.62
2023-04-19T02:45:11.314Z,9.66
2023-04-19T02:47:40.940Z,9.65
2023-04-19T02:50:09.637Z,9.57
2023-04-19T02:52:37.880Z,9.57
2023-04-19T02:55:07.532Z,9.54
2023-04-19T02:57:35.861Z,9.50
2023-04-19T03:00:05.397Z,9.46
2023-04-19T03:02:34.637Z,9.44
2023-04-19T03:05:05.200Z,9.43
2023-04-19T03:07:33.576Z,9.34
2023-04-19T03:10:01.754Z,9.52
2023-04-19T03:12:29.995Z,9.51
2023-04-19T03:14:58.159Z,9.43
2023-04-19T03:17:27.220Z,9.47
2023-04-19T03:20:15.648Z,9.39
2023-04-19T03:22:43.933Z,9.30
2023-04-19T03:25:13.720Z,9.38
2023-04-19T03:27:42.041Z,9.30
2023-04-19T03:30:11.261Z,9.24
2023-04-19T03:32:39.849Z,9.26
2023-04-19T03:35:08.702Z,9.19
2023-04-19T03:37:38.279Z,9.28
2023-04-19T03:40:11.350Z,9.11
2023-04-19T03:42:39.683Z,9.03
2023-04-19T03:45:08.331Z,8.78
2023-04-19T03:47:36.710Z,8.67
2023-04-19T03:50:05.270Z,8.60
2023-04-19T03:52:33.827Z,8.38
2023-04-19T03:55:03.738Z,8.51
2023-04-19T03:57:32.175Z,8.44
2023-04-19T04:00:01.721Z,8.47
2023-04-19T04:02:30.486Z,8.57
2023-04-19T04:05:02.459Z,8.64
2023-04-19T04:07:30.888Z,8.64
2023-04-19T04:10:03.139Z,8.60
2023-04-19T04:12:33.446Z,8.53
2023-04-19T04:15:01.745Z,8.57
2023-04-19T04:17:29.966Z,8.42
2023-04-19T04:19:58.208Z,8.33
2023-04-19T04:22:27.763Z,8.18
2023-04-19T04:24:59.355Z,8.16
2023-04-19T04:27:28.090Z,8.09
2023-04-19T04:29:58.557Z,8.08
2023-04-19T04:32:27.569Z,7.97
2023-04-19T04:34:56.790Z,8.02
2023-04-19T04:37:25.661Z,7.99
2023-04-19T04:39:57.051Z,8.01
2023-04-19T04:42:26.502Z,7.88
2023-04-19T04:44:58.043Z,7.87
2023-04-19T04:47:32.425Z,7.87
2023-04-19T04:50:00.980Z,7.82
2023-04-19T04:52:31.730Z,7.80
2023-04-19T04:55:00.977Z,7.75
2023-04-19T04:57:29.378Z,7.80
2023-04-19T04:59:57.588Z,7.71
2023-04-19T05:02:26.344Z,7.75
2023-04-19T05:04:56.108Z,7.72
2023-04-19T05:07:24.582Z,7.75
2023-04-19T05:09:52.907Z,7.70
2023-04-19T05:12:21.307Z,7.68
2023-04-19T05:14:49.967Z,7.72
2023-04-19T05:17:18.558Z,7.64
2023-04-19T05:19:46.882Z,7.74
2023-04-19T05:22:16.744Z,7.82
2023-04-19T05:24:45.142Z,7.80
2023-04-19T05:27:13.439Z,7.88
2023-04-19T05:29:41.795Z,8.03
2023-04-19T05:32:10.207Z,7.97
2023-04-19T05:34:38.473Z,7.95
2023-04-19T05:37:07.293Z,7.97
2023-04-19T05:39:37.118Z,8.14
2023-04-19T05:42:26.135Z,8.46
2023-04-19T05:44:54.423Z,8.50
2023-04-19T05:47:23.083Z,8.54
2023-04-19T05:49:51.319Z,8.56
2023-04-19T05:52:19.614Z,8.70
2023-04-19T05:54:49.634Z,8.68
2023-04-19T05:57:18.453Z,8.47
2023-04-19T05:59:47.010Z,8.44
2023-04-19T06:02:15.787Z,8.49
2023-04-19T06:04:44.341Z,8.46
2023-04-19T06:07:26.815Z,8.53
2023-04-19T06:10:01.650Z,8.42
2023-04-19T06:12:29.979Z,8.56
2023-04-19T06:14:58.169Z,8.44
2023-04-19T06:17:26.643Z,8.40
2023-04-19T06:19:55.252Z,8.34
2023-04-19T06:22:23.890Z,8.25
2023-04-19T06:24:52.243Z,8.36
2023-04-19T06:27:22.019Z,8.40
2023-04-19T06:29:51.346Z,8.25
2023-04-19T06:32:19.787Z,8.28
2023-04-19T06:34:48.270Z,8.37
2023-04-19T06:37:16.651Z,8.44
2023-04-19T06:39:44.869Z,8.41
2023-04-19T06:42:13.352Z,8.46
2023-04-19T06:44:43.220Z,8.49
2023-04-19T06:47:11.795Z,8.56
2023-04-19T06:49:40.066Z,8.61
2023-04-19T06:52:08.305Z,8.41
2023-04-19T06:54:36.682Z,8.37
2023-04-19T06:57:05.201Z,8.50
2023-04-19T06:59:33.896Z,8.77
2023-04-19T07:02:03.790Z,8.86
2023-04-19T07:04:32.490Z,9.01
2023-04-19T07:07:01.296Z,8.65
2023-04-19T07:09:29.849Z,8.57
2023-04-19T07:11:58.475Z,8.73
2023-04-19T07:14:26.745Z,8.84
2023-04-19T07:16:56.448Z,9.01
2023-04-19T07:19:28.137Z,9.08
2023-04-19T07:21:56.541Z,9.44
2023-04-19T07:24:25.910Z,9.36
2023-04-19T07:26:54.486Z,9.34
2023-04-19T07:29:23.045Z,9.09
2023-04-19T07:31:51.958Z,9.62
2023-04-19T07:34:21.101Z,10.28
2023-04-19T07:36:50.698Z,11.50
2023-04-19T07:39:19.093Z,11.76
2023-04-19T07:41:47.391Z,12.21
2023-04-19T07:44:16.089Z,13.56
2023-04-19T07:46:45.311Z,14.07
2023-04-19T07:49:14.455Z,14.46
2023-04-19T07:51:42.853Z,14.30
2023-04-19T07:54:13.048Z,14.82
2023-04-19T07:56:41.613Z,16.16
2023-04-19T07:59:09.980Z,17.58
2023-04-19T08:01:38.324Z,18.44
2023-04-19T08:04:06.990Z,18.10
2023-04-19T08:06:35.568Z,19.31
2023-04-19T08:09:04.129Z,18.35
2023-04-19T08:11:33.987Z,17.88
2023-04-19T08:14:11.928Z,18.56
2023-04-19T08:19:18.152Z,18.58
2023-04-19T08:22:00.541Z,18.16
2023-04-19T08:24:28.777Z,18.02
2023-04-19T08:27:16.110Z,15.68
2023-04-19T08:29:44.465Z,16.26
2023-04-19T08:32:12.995Z,15.02
2023-04-19T08:34:41.477Z,16.42
2023-04-19T08:37:09.833Z,16.22
2023-04-19T08:39:38.364Z,15.47
2023-04-19T08:42:13.393Z,15.28
2023-04-19T08:45:13.072Z,15.09
2023-04-19T08:47:42.139Z,16.71
2023-04-19T08:50:31.250Z,16.43
2023-04-19T08:53:16.305Z,16.24
2023-04-19T08:56:08.610Z,15.98
2023-04-19T08:58:57.981Z,16.14
2023-04-19T09:01:35.980Z,18.03
2023-04-19T09:04:31.701Z,19.34
2023-04-19T09:06:56.602Z,19.76
2023-04-19T09:11:57.381Z,17.94
2023-04-19T09:14:26.749Z,18.25
2023-04-19T09:17:12.575Z,18.37
2023-04-19T09:19:46.672Z,18.40
2023-04-19T09:22:15.465Z,18.52
2023-04-19T09:27:16.719Z,18.35
2023-04-19T09:29:53.714Z,18.62
2023-04-19T09:32:24.238Z,16.70
2023-04-19T09:34:54.273Z,16.95
2023-04-19T09:37:50.927Z,16.59
2023-04-19T09:40:32.850Z,17.10
2023-04-19T09:45:43.554Z,16.11
2023-04-19T09:48:15.029Z,17.34
2023-04-19T09:51:00.186Z,16.16
2023-04-19T09:53:34.163Z,17.38
2023-04-19T09:56:06.104Z,17.93
2023-04-19T10:01:15.928Z,17.51
2023-04-19T10:03:49.145Z,16.75
2023-04-19T10:09:06.853Z,18.91
2023-04-19T10:11:38.763Z,20.80
2023-04-19T10:14:08.922Z,22.04
2023-04-19T10:16:41.079Z,18.41
2023-04-19T10:19:12.165Z,18.22
2023-04-19T10:21:42.339Z,18.30
2023-04-19T10:24:13.640Z,19.27
2023-04-19T10:27:08.569Z,18.99
2023-04-19T10:29:56.106Z,18.13
2023-04-19T10:32:25.475Z,20.26
2023-04-19T10:34:55.698Z,19.60
2023-04-19T10:37:26.255Z,18.78
2023-04-19T10:39:54.880Z,18.74
2023-04-19T10:42:23.280Z,18.01
2023-04-19T10:45:06.783Z,17.65
2023-04-19T10:47:45.512Z,18.85
2023-04-19T10:50:17.327Z,20.70
2023-04-19T10:52:45.777Z,21.59
2023-04-19T10:55:16.709Z,22.78
2023-04-19T10:58:04.671Z,23.44
2023-04-19T11:00:33.625Z,21.66
2023-04-19T11:03:22.257Z,23.51
2023-04-19T11:06:05.703Z,25.56
2023-04-19T11:08:35.488Z,27.02
2023-04-19T11:11:04.442Z,25.11
2023-04-19T11:13:34.501Z,21.86
2023-04-19T11:16:09.122Z,23.69
2023-04-19T11:18:37.591Z,25.15
2023-04-19T11:21:06.296Z,25.94
2023-04-19T11:23:36.365Z,25.33
2023-04-19T11:26:04.937Z,25.64
2023-04-19T11:28:34.142Z,23.18
2023-04-19T11:31:05.548Z,24.72
2023-04-19T11:33:34.486Z,22.92
2023-04-19T11:36:03.250Z,21.62
2023-04-19T11:38:32.165Z,23.06
2023-04-19T11:41:02.404Z,24.02
2023-04-19T11:43:34.469Z,20.64
2023-04-19T11:46:06.880Z,22.45
2023-04-19T11:48:35.645Z,21.73
2023-04-19T11:51:04.218Z,22.45
2023-04-19T11:53:33.295Z,21.94
2023-04-19T11:56:06.693Z,21.62
2023-04-19T11:58:38.384Z,22.40
2023-04-19T12:01:07.532Z,22.33
2023-04-19T12:03:36.455Z,20.73
2023-04-19T12:06:09.092Z,21.71
2023-04-19T12:08:38.824Z,21.23
2023-04-19T12:11:10.095Z,21.64
2023-04-19T12:13:40.824Z,21.79
2023-04-19T12:16:09.667Z,20.04
2023-04-19T12:18:45.790Z,19.66
2023-04-19T12:21:25.663Z,19.37
2023-04-19T12:23:57.399Z,19.86
2023-04-19T12:26:28.560Z,20.80
2023-04-19T12:29:01.779Z,20.85
2023-04-19T12:31:32.169Z,22.32
2023-04-19T12:34:00.625Z,22.73
2023-04-19T12:36:30.478Z,25.32
2023-04-19T12:38:58.860Z,24.92
2023-04-19T12:41:28.819Z,26.40
2023-04-19T12:43:57.560Z,25.59
2023-04-19T12:46:28.679Z,23.36
2023-04-19T12:48:57.365Z,22.95
2023-04-19T12:51:26.497Z,23.03
2023-04-19T12:53:55.476Z,23.94
2023-04-19T12:56:24.263Z,23.59
2023-04-19T12:58:54.345Z,23.01
2023-04-19T13:01:23.672Z,21.89
2023-04-19T13:03:52.162Z,24.08
2023-04-19T13:06:20.768Z,22.26
2023-04-19T13:08:49.058Z,22.73
2023-04-19T13:11:23.036Z,22.85
2023-04-19T13:13:52.768Z,23.18
2023-04-19T13:16:23.131Z,23.30
2023-04-19T13:18:52.402Z,21.73
2023-04-19T13:21:37.772Z,21.32
2023-04-19T13:24:06.560Z,23.22
2023-04-19T13:26:35.480Z,24.67
2023-04-19T13:29:04.060Z,25.52
2023-04-19T13:31:33.953Z,25.99
2023-04-19T13:34:14.333Z,23.04
2023-04-19T13:36:42.967Z,23.20
2023-04-19T13:39:11.234Z,22.17
2023-04-19T13:41:39.657Z,22.65
2023-04-19T13:44:07.894Z,24.24
2023-04-19T13:46:37.985Z,24.72
2023-04-19T13:49:06.426Z,22.62
2023-04-19T13:51:46.569Z,22.33
2023-04-19T13:54:18.854Z,21.85
2023-04-19T13:56:49.801Z,20.52
2023-04-19T13:59:18.979Z,21.75
2023-04-19T14:01:48.674Z,19.77
2023-04-19T14:04:17.281Z,19.36
2023-04-19T14:06:46.232Z,20.69
2023-04-19T14:09:14.534Z,18.71
2023-04-19T14:11:43.318Z,20.70
2023-04-19T14:14:11.993Z,22.05
2023-04-19T14:16:40.789Z,23.05
2023-04-19T14:19:13.171Z,22.14
2023-04-19T14:21:41.505Z,21.83
2023-04-19T14:24:09.798Z,21.19
2023-04-19T14:26:38.472Z,19.48
2023-04-19T14:29:08.114Z,19.29
2023-04-19T14:31:36.624Z,19.72
2023-04-19T14:34:04.977Z,19.49
2023-04-19T14:36:34.609Z,18.76
2023-04-19T14:39:03.271Z,19.77
2023-04-19T14:41:31.639Z,19.80
2023-04-19T14:44:00.195Z,18.71
2023-04-19T14:46:29.724Z,18.84
2023-04-19T14:49:03.285Z,18.36
2023-04-19T14:51:31.787Z,18.85
2023-04-19T14:54:01.399Z,18.91
2023-04-19T14:56:29.626Z,18.30
2023-04-19T14:58:57.987Z,18.32
2023-04-19T15:01:26.408Z,17.47
2023-04-19T15:03:55.190Z,17.90
2023-04-19T15:06:23.682Z,17.85
2023-04-19T15:08:51.927Z,16.85
2023-04-19T15:11:21.790Z,16.35
2023-04-19T15:13:50.386Z,17.10
2023-04-19T15:16:18.776Z,16.70
2023-04-19T15:18:47.200Z,16.37
2023-04-19T15:21:15.826Z,16.03
2023-04-19T15:23:44.470Z,15.94
2023-04-19T15:26:13.274Z,15.22
2023-04-19T15:28:43.036Z,15.88
2023-04-19T15:31:11.654Z,15.77
2023-04-19T15:33:41.037Z,15.40
2023-04-19T15:36:09.405Z,15.46
2023-04-19T15:38:38.092Z,15.16
2023-04-19T15:41:09.308Z,15.42
2023-04-19T15:43:37.549Z,15.65
2023-04-19T15:46:07.519Z,15.20
2023-04-19T15:48:36.455Z,15.21
2023-04-19T15:51:05.629Z,14.86
2023-04-19T15:53:35.320Z,14.84
2023-04-19T15:56:08.088Z,14.89
2023-04-19T15:58:37.204Z,15.46
2023-04-19T16:01:13.421Z,15.81
2023-04-19T16:03:42.215Z,16.38
2023-04-19T16:06:10.716Z,16.45
2023-04-19T16:08:38.981Z,16.27
2023-04-19T16:11:07.309Z,15.99
2023-04-19T16:13:35.560Z,15.72
2023-04-19T16:16:04.187Z,15.11
2023-04-19T16:18:33.773Z,14.81
2023-04-19T16:21:02.048Z,14.53
2023-04-19T16:23:30.395Z,14.38
2023-04-19T16:25:58.595Z,14.25
2023-04-19T16:28:27.096Z,14.08
2023-04-19T16:30:55.938Z,14.30
2023-04-19T16:33:24.166Z,14.23
2023-04-19T16:35:54.013Z,14.64
2023-04-19T16:38:22.284Z,14.54
2023-04-19T16:40:50.615Z,14.13
2023-04-19T16:43:20.915Z,13.80
2023-04-19T16:45:49.256Z,13.58
2023-04-19T16:48:17.563Z,13.37
2023-04-19T16:50:46.420Z,13.49
2023-04-19T16:53:16.019Z,13.39
2023-04-19T16:55:44.303Z,13.24
2023-04-19T16:58:12.525Z,13.30
2023-04-19T17:00:40.920Z,13.08
2023-04-19T17:03:10.196Z,13.01
2023-04-19T17:05:38.608Z,13.00
2023-04-19T17:08:07.001Z,12.87
2023-04-19T17:10:36.732Z,13.00
2023-04-19T17:13:05.201Z,12.86
2023-04-19T17:15:33.525Z,12.76
2023-04-19T17:18:01.832Z,12.78
2023-04-19T17:20:30.170Z,12.70
2023-04-19T17:22:58.583Z,12.63
2023-04-19T17:25:26.865Z,12.51
2023-04-19T17:27:59.132Z,12.36
2023-04-19T17:30:28.470Z,12.28
2023-04-19T17:32:56.874Z,12.14
2023-04-19T17:35:26.086Z,12.13
2023-04-19T17:37:54.637Z,12.01
2023-04-19T17:40:23.453Z,11.83
2023-04-19T17:42:51.828Z,11.82
2023-04-19T17:45:21.784Z,11.90
2023-04-19T17:47:50.405Z,11.78
2023-04-19T17:50:18.721Z,11.62
2023-04-19T17:52:47.021Z,11.67
2023-04-19T17:55:16.962Z,11.52
2023-04-19T17:57:47.082Z,11.39
2023-04-19T18:00:16.471Z,11.31
2023-04-19T18:02:46.376Z,11.28
2023-04-19T18:05:16.175Z,11.18
2023-04-19T18:07:44.802Z,11.11
2023-04-19T18:10:13.867Z,11.11
2023-04-19T18:12:42.324Z,11.05
2023-04-19T18:15:11.177Z,11.03
2023-04-19T18:17:39.642Z,10.95
2023-04-19T18:20:10.789Z,10.92
2023-04-19T18:22:41.281Z,10.77
2023-04-19T18:25:10.189Z,10.71
2023-04-19T18:27:38.538Z,10.66
2023-04-19T18:30:07.624Z,10.73
2023-04-19T18:32:36.083Z,10.59
2023-04-19T18:35:04.924Z,10.49
2023-04-19T18:37:34.641Z,10.44
2023-04-19T18:40:05.279Z,10.35
2023-04-19T18:42:33.851Z,10.29
2023-04-19T18:45:04.039Z,10.20
2023-04-19T18:47:32.666Z,10.17
2023-04-19T18:50:05.055Z,10.05
2023-04-19T18:52:36.290Z,9.99
2023-04-19T18:55:05.339Z,9.87
2023-04-19T18:57:35.097Z,9.87
2023-04-19T19:00:06.264Z,9.81
2023-04-19T19:02:37.044Z,9.67
2023-04-19T19:05:07.503Z,9.70
2023-04-19T19:07:38.219Z,9.63
2023-04-19T19:10:19.234Z,9.58
2023-04-19T19:12:50.808Z,9.55
2023-04-19T19:15:19.166Z,9.44
2023-04-19T19:17:49.831Z,9.55
2023-04-19T19:20:19.774Z,9.33
2023-04-19T19:22:49.462Z,9.29
2023-04-19T19:25:17.775Z,9.24
2023-04-19T19:28:02.789Z,9.15
2023-04-19T19:30:34.601Z,9.04
2023-04-19T19:33:04.778Z,9.06
2023-04-19T19:35:33.483Z,9.07
2023-04-19T19:38:03.576Z,8.98
2023-04-19T19:40:32.834Z,8.95
2023-04-19T19:43:01.898Z,8.93
2023-04-19T19:45:30.842Z,8.82
2023-04-19T19:48:00.626Z,8.91
2023-04-19T19:53:01.417Z,8.99
2023-04-19T19:55:31.072Z,8.80
2023-04-19T20:00:45.095Z,8.71
2023-04-19T20:03:28.614Z,8.60
2023-04-19T20:06:35.772Z,8.55
2023-04-19T20:08:54.551Z,8.59
2023-04-19T20:11:24.619Z,8.39
2023-04-19T20:13:53.001Z,8.40
2023-04-19T20:16:21.611Z,8.48
2023-04-19T20:18:50.194Z,8.36
2023-04-19T20:21:20.503Z,8.32
2023-04-19T20:23:52.729Z,8.20
2023-04-19T20:26:21.269Z,8.20
2023-04-19T20:28:52.667Z,8.16
2023-04-19T20:31:23.755Z,8.05
2023-04-19T20:33:54.170Z,8.06
2023-04-19T20:36:24.618Z,8.18
2023-04-19T20:39:09.871Z,8.31
2023-04-19T20:41:38.467Z,8.33
2023-04-19T20:44:08.588Z,8.40
2023-04-19T20:46:36.882Z,8.25
2023-04-19T20:49:06.206Z,8.25
2023-04-19T20:51:34.974Z,8.24
2023-04-19T20:54:03.649Z,8.11
2023-04-19T20:56:32.273Z,8.10
2023-04-19T20:59:00.804Z,8.08
2023-04-19T21:01:32.014Z,8.02
2023-04-19T21:04:01.070Z,8.03
2023-04-19T21:06:29.889Z,7.96
2023-04-19T21:08:59.381Z,7.88
2023-04-19T21:11:31.042Z,7.94
2023-04-19T21:13:59.685Z,7.93
2023-04-19T21:16:28.241Z,8.04
2023-04-19T21:18:58.137Z,7.86
2023-04-19T21:21:28.076Z,8.00
2023-04-19T21:23:56.592Z,7.91
2023-04-19T21:26:28.341Z,7.77
2023-04-19T21:28:57.197Z,7.92
2023-04-19T21:31:27.457Z,7.87
2023-04-19T21:33:55.953Z,7.88
2023-04-19T21:36:26.518Z,7.84
2023-04-19T21:38:55.410Z,7.85
2023-04-19T21:41:24.444Z,7.78
2023-04-19T21:43:53.252Z,7.85
2023-04-19T21:46:21.662Z,7.80
2023-04-19T21:48:50.328Z,7.89
2023-04-19T21:51:18.898Z,7.94
2023-04-19T21:53:48.827Z,7.94
2023-04-19T21:56:17.392Z,7.90
2023-04-19T21:58:45.917Z,7.98
2023-04-19T22:01:14.255Z,7.99
2023-04-19T22:03:42.659Z,7.93
2023-04-19T22:06:11.374Z,7.82
2023-04-19T22:08:39.564Z,7.82
2023-04-19T22:11:09.108Z,7.77
2023-04-19T22:13:38.698Z,7.63
2023-04-19T22:16:10.539Z,7.67
2023-04-19T22:18:45.215Z,7.70
2023-04-19T22:21:15.252Z,7.66
2023-04-19T22:23:44.556Z,7.65
2023-04-19T22:26:14.791Z,7.56
2023-04-19T22:28:43.160Z,7.50
2023-04-19T22:31:11.906Z,7.42
2023-04-19T22:33:40.607Z,7.35
2023-04-19T22:36:09.409Z,7.32
2023-04-19T22:38:37.690Z,7.17
2023-04-19T22:41:06.279Z,7.26
2023-04-19T22:43:35.827Z,7.13
2023-04-19T22:46:04.294Z,7.30
2023-04-19T22:48:32.970Z,7.22
2023-04-19T22:51:01.933Z,7.27
2023-04-19T22:53:30.273Z,7.24
2023-04-19T22:55:58.447Z,7.10
2023-04-19T22:58:26.851Z,7.12
2023-04-19T23:00:56.408Z,7.10
2023-04-19T23:03:24.731Z,7.27
2023-04-19T23:05:54.481Z,7.24
2023-04-19T23:08:23.235Z,7.20
2023-04-19T23:10:51.961Z,7.15
2023-04-19T23:13:20.370Z,7.03
2023-04-19T23:15:49.510Z,6.94
2023-04-19T23:18:19.208Z,6.84
2023-04-19T23:20:47.448Z,6.80
2023-04-19T23:23:15.976Z,6.68
2023-04-19T23:25:44.288Z,6.64
2023-04-19T23:28:12.672Z,6.59
2023-04-19T23:30:41.101Z,6.65
2023-04-19T23:33:09.890Z,6.61
2023-04-19T23:35:39.664Z,6.66
2023-04-19T23:38:08.096Z,6.53
2023-04-19T23:40:36.788Z,6.76
2023-04-19T23:43:05.347Z,6.85
2023-04-19T23:45:33.749Z,6.95
2023-04-19T23:48:01.981Z,7.09
2023-04-19T23:50:30.933Z,7.18
2023-04-19T23:53:00.542Z,7.20
2023-04-19T23:55:28.908Z,7.27
2023-04-19T23:57:57.355Z,7.38
